Time;durP1;ratioP1;P1;durP2;ratioP2;P2;SDS_P1;SDS_P2;PMS_P1;PMS_P2;Temp;Humidity;BMP_temperature;BMP_pressure;BME280_temperature;BME280_humidity;BME280_pressure;Samples;Min_cycle;Max_cycle;Signal;HPM_P1;HPM_P2
2022/01/27 00:01:48;;;;;;;15.07;9.70;;;;;;;-1.97;100.00;97430.94;5014053;28;20844;-76
2022/01/27 00:04:26;;;;;;;22.23;12.60;;;;;;;-1.56;100.00;97474.25;5012994;28;20835;-75
2022/01/27 00:06:53;;;;;;;17.30;11.57;;;;;;;-1.77;100.00;97441.81;5012850;28;20450;-75
2022/01/27 00:11:47;;;;;;;19.30;12.00;;;;;;;-1.91;100.00;97430.84;5012641;28;20439;-75
2022/01/27 00:14:17;;;;;;;18.10;14.17;;;;;;;-1.80;100.00;97455.22;5012733;28;20459;-76
2022/01/27 00:16:53;;;;;;;18.00;10.43;;;;;;;-1.69;100.00;97445.91;5014187;28;20430;-76
2022/01/27 00:19:20;;;;;;;19.63;11.50;;;;;;;-1.69;100.00;97451.09;4996872;28;20477;-76
2022/01/27 00:21:47;;;;;;;19.93;13.47;;;;;;;-1.84;100.00;97431.56;5014355;28;20875;-76
2022/01/27 00:24:15;;;;;;;22.97;12.93;;;;;;;-1.94;100.00;97441.63;5012813;28;20545;-76
2022/01/27 00:26:42;;;;;;;24.77;13.87;;;;;;;-1.91;100.00;97450.78;4997187;28;20439;-76
2022/01/27 00:29:09;;;;;;;23.77;14.50;;;;;;;-1.72;100.00;97459.31;4996336;28;20777;-76
2022/01/27 00:31:36;;;;;;;20.33;13.33;;;;;;;-1.91;100.00;97423.06;5014313;28;20434;-76
2022/01/27 00:34:04;;;;;;;21.40;13.00;;;;;;;-1.87;100.00;97419.03;4995668;28;20507;-76
2022/01/27 00:36:32;;;;;;;23.10;13.63;;;;;;;-1.83;100.00;97393.47;5011908;28;20878;-76
2022/01/27 00:38:59;;;;;;;12.03;9.20;;;;;;;-1.68;100.00;97429.34;5011990;28;20457;-75
2022/01/27 00:41:26;;;;;;;18.63;12.30;;;;;;;-1.69;100.00;97435.53;5013302;28;20505;-76
2022/01/27 00:43:54;;;;;;;19.80;12.63;;;;;;;-1.91;100.00;97404.13;5013237;28;20912;-76
2022/01/27 00:46:20;;;;;;;22.53;15.77;;;;;;;-1.75;100.00;97434.59;5012129;28;20446;-76
2022/01/27 00:48:49;;;;;;;21.10;14.20;;;;;;;-1.66;100.00;97430.72;5011731;28;21101;-76
2022/01/27 00:51:21;;;;;;;19.57;12.57;;;;;;;-1.62;100.00;97437.03;5011827;28;20463;-76
2022/01/27 00:54:14;;;;;;;21.53;13.90;;;;;;;-1.86;100.00;97402.47;5011484;28;20489;-76
2022/01/27 00:56:52;;;;;;;25.90;13.20;;;;;;;-1.95;100.00;97374.50;5010968;28;20538;-76
2022/01/27 01:01:54;;;;;;;16.07;8.33;;;;;;;-1.98;100.00;97399.03;5012221;28;20904;-76
2022/01/27 01:04:27;;;;;;;24.03;15.63;;;;;;;-2.10;100.00;97378.28;5012467;28;20501;-75
2022/01/27 01:06:54;;;;;;;23.90;13.53;;;;;;;-2.01;100.00;97389.09;5011153;28;20518;-75
2022/01/27 01:17:25;;;;;;;15.30;12.07;;;;;;;-1.80;100.00;97421.53;5012220;28;20529;-75
2022/01/27 01:33:13;;;;;;;19.53;12.20;;;;;;;-2.04;100.00;97373.22;5010867;28;20586;-76
2022/01/27 01:35:51;;;;;;;23.97;12.97;;;;;;;-2.03;100.00;97378.16;4994769;28;20467;-76
2022/01/27 01:38:20;;;;;;;20.53;12.30;;;;;;;-1.84;100.00;97405.63;5010684;28;20945;-76
2022/01/27 01:40:49;;;;;;;26.50;15.70;;;;;;;-1.75;100.00;97413.88;4994538;28;20498;-76
2022/01/27 01:43:17;;;;;;;17.70;12.47;;;;;;;-2.12;100.00;97376.91;5011764;28;20579;-76
2022/01/27 01:45:44;;;;;;;28.83;15.07;;;;;;;-2.13;100.00;97367.56;5010380;28;20561;-76
2022/01/27 01:48:12;;;;;;;23.90;14.47;;;;;;;-2.13;100.00;97360.59;5009849;28;20478;-75
2022/01/27 01:50:39;;;;;;;22.27;14.53;;;;;;;-1.86;100.00;97404.28;5010263;28;20522;-75
2022/01/27 01:53:05;;;;;;;21.60;13.33;;;;;;;-1.81;100.00;97410.38;5011384;28;20451;-76
2022/01/27 01:55:32;;;;;;;29.37;14.60;;;;;;;-1.83;100.00;97403.84;5010401;28;20475;-75
2022/01/27 01:57:59;;;;;;;21.17;13.97;;;;;;;-2.00;100.00;97382.94;5011865;28;20427;-76
2022/01/27 02:00:27;;;;;;;20.00;14.60;;;;;;;-1.90;100.00;97392.75;5011816;28;20431;-76
2022/01/27 02:02:55;;;;;;;27.87;13.50;;;;;;;-1.85;100.00;97396.28;5010405;28;20431;-76
2022/01/27 02:05:26;;;;;;;19.90;12.60;;;;;;;-1.87;100.00;97390.53;5011680;28;20459;-76
2022/01/27 02:08:33;;;;;;;20.37;11.97;;;;;;;-1.91;100.00;97396.34;5011735;28;20893;-76
2022/01/27 02:19:15;;;;;;;23.63;13.40;;;;;;;-2.21;100.00;97353.09;5009884;28;20441;-75
2022/01/27 02:21:53;;;;;;;24.70;14.50;;;;;;;-2.40;100.00;97323.09;5011609;28;20529;-76
2022/01/27 02:24:22;;;;;;;24.30;13.60;;;;;;;-2.07;100.00;97374.44;5011219;28;20502;-76
2022/01/27 02:26:49;;;;;;;27.93;14.30;;;;;;;-1.94;100.00;97389.81;5010026;28;20439;-76
2022/01/27 02:29:18;;;;;;;23.20;14.17;;;;;;;-2.29;100.00;97350.00;5011354;28;20540;-76
2022/01/27 02:31:46;;;;;;;18.17;10.17;;;;;;;-2.22;100.00;97358.50;5011036;28;20842;-76
2022/01/27 02:34:13;;;;;;;24.27;11.87;;;;;;;-2.18;100.00;97362.22;5009783;28;20466;-76
2022/01/27 02:36:40;;;;;;;27.67;15.50;;;;;;;-2.09;100.00;97376.47;5009732;28;20488;-76
2022/01/27 02:39:09;;;;;;;26.40;13.77;;;;;;;-2.17;100.00;97367.19;5010963;28;20497;-76
2022/01/27 02:41:51;;;;;;;26.83;16.47;;;;;;;-2.08;100.00;97373.66;5009620;28;20528;-76
2022/01/27 02:44:55;;;;;;;30.30;15.67;;;;;;;-2.29;100.00;97337.84;5010997;28;20455;-76
2022/01/27 02:47:24;;;;;;;26.30;16.47;;;;;;;-2.17;100.00;97354.25;5009636;28;20986;-76
2022/01/27 02:49:51;;;;;;;25.93;12.70;;;;;;;-2.16;100.00;97361.00;5009925;28;20431;-76
2022/01/27 02:52:17;;;;;;;37.83;16.93;;;;;;;-2.38;100.00;97337.38;4993842;28;20471;-76
2022/01/27 02:54:44;;;;;;;32.73;17.93;;;;;;;-2.74;100.00;97264.97;5010408;28;20483;-76
2022/01/27 02:57:23;;;;;;;26.20;14.30;;;;;;;-2.09;100.00;97353.94;5010517;28;20445;-76
2022/01/27 02:59:50;;;;;;;26.80;14.20;;;;;;;-2.08;100.00;97355.53;5013586;28;20501;-76
2022/01/27 03:02:18;;;;;;;29.00;14.93;;;;;;;-2.12;100.00;97353.59;5013538;28;20467;-76
2022/01/27 03:04:44;;;;;;;20.90;11.53;;;;;;;-2.33;100.00;97328.16;5015043;28;20553;-76
2022/01/27 03:07:11;;;;;;;25.70;16.67;;;;;;;-2.18;100.00;97346.69;5014922;28;20427;-76
2022/01/27 03:09:38;;;;;;;15.10;10.50;;;;;;;-2.36;100.00;97305.31;5015459;28;20431;-76
2022/01/27 03:12:07;;;;;;;23.80;14.60;;;;;;;-2.28;100.00;97325.69;4997198;28;20439;-75
2022/01/27 03:14:35;;;;;;;25.40;14.20;;;;;;;-2.19;100.00;97345.13;5014752;28;20832;-75
2022/01/27 03:17:04;;;;;;;19.03;11.87;;;;;;;-2.35;100.00;97328.38;5013367;28;20999;-76
2022/01/27 03:19:31;;;;;;;20.03;14.57;;;;;;;-2.17;100.00;97359.41;4997328;28;20501;-76
2022/01/27 03:22:02;;;;;;;22.27;15.20;;;;;;;-2.10;100.00;97359.34;5013539;28;20989;-76
2022/01/27 03:24:30;;;;;;;30.30;16.50;;;;;;;-2.36;100.00;97302.72;5014559;28;20455;-76
2022/01/27 03:26:57;;;;;;;30.87;16.47;;;;;;;-2.45;100.00;97309.97;5014603;28;20842;-75
2022/01/27 03:29:25;;;;;;;24.53;11.23;;;;;;;-2.40;100.00;97321.28;5013217;28;20493;-75
2022/01/27 03:31:52;;;;;;;14.07;8.00;;;;;;;-2.27;100.00;97341.03;4996867;28;20947;-75
2022/01/27 03:34:19;;;;;;;20.90;12.77;;;;;;;-2.25;100.00;97349.38;5014248;28;20509;-75
2022/01/27 03:36:46;;;;;;;23.97;12.70;;;;;;;-2.47;100.00;97301.66;5013373;28;20908;-76
2022/01/27 03:39:17;;;;;;;23.03;12.23;;;;;;;-2.74;100.00;97252.03;5014820;28;20463;-76
2022/01/27 03:41:50;;;;;;;22.10;13.37;;;;;;;-2.32;100.00;97320.19;5013124;28;20457;-76
2022/01/27 03:44:18;;;;;;;20.40;13.80;;;;;;;-2.42;100.00;97296.59;5013157;28;20457;-76
2022/01/27 03:46:46;;;;;;;22.00;15.80;;;;;;;-2.40;100.00;97302.38;5012983;28;20486;-76
2022/01/27 03:49:12;;;;;;;16.83;11.50;;;;;;;-2.43;100.00;97307.97;5013174;28;20475;-76
2022/01/27 03:51:39;;;;;;;19.23;11.63;;;;;;;-2.43;100.00;97313.94;5012602;28;20467;-76
2022/01/27 03:54:06;;;;;;;27.20;13.43;;;;;;;-2.41;100.00;97305.94;5014064;28;20451;-75
2022/01/27 03:56:32;;;;;;;24.50;15.33;;;;;;;-2.78;100.00;97253.47;5012968;28;20466;-76
2022/01/27 03:58:59;;;;;;;22.97;11.53;;;;;;;-2.44;100.00;97302.00;5012875;28;20475;-75
2022/01/27 04:01:26;;;;;;;24.33;15.90;;;;;;;-2.69;100.00;97272.84;5012521;28;20459;-76
2022/01/27 04:03:56;;;;;;;25.23;14.90;;;;;;;-2.49;100.00;97283.75;4996085;28;20502;-77
2022/01/27 04:06:32;;;;;;;20.30;12.37;;;;;;;-2.48;100.00;97300.06;4996122;28;20471;-76
2022/01/27 04:09:00;;;;;;;23.70;15.40;;;;;;;-2.64;100.00;97269.63;4995962;28;20435;-76
2022/01/27 04:11:27;;;;;;;51.57;28.67;;;;;;;-2.60;100.00;97271.56;5013688;28;20427;-76
2022/01/27 04:13:54;;;;;;;30.70;15.63;;;;;;;-2.59;100.00;97290.44;4995971;28;20466;-76
2022/01/27 04:16:21;;;;;;;24.70;13.40;;;;;;;-2.76;100.00;97275.53;4996212;28;20439;-77
2022/01/27 04:18:48;;;;;;;27.10;15.07;;;;;;;-2.82;100.00;97267.84;4996075;28;20976;-77
2022/01/27 04:21:15;;;;;;;22.53;13.37;;;;;;;-2.59;100.00;97287.88;5013522;28;20427;-76
2022/01/27 04:23:42;;;;;;;26.80;14.37;;;;;;;-2.74;100.00;97259.78;5012379;28;20562;-76
2022/01/27 04:26:11;;;;;;;22.30;15.67;;;;;;;-2.56;100.00;97287.41;5013703;28;20504;-76
2022/01/27 04:28:39;;;;;;;33.70;17.03;;;;;;;-3.01;100.00;97215.34;5013688;28;20473;-76
2022/01/27 04:31:08;;;;;;;26.77;16.50;;;;;;;-2.82;100.00;97242.75;5012143;28;20550;-76
2022/01/27 04:33:37;;;;;;;34.87;17.00;;;;;;;-2.73;100.00;97258.78;5012236;28;20502;-76
2022/01/27 04:36:11;;;;;;;23.17;13.27;;;;;;;-2.68;100.00;97277.81;5012142;28;20534;-76
2022/01/27 04:41:50;;;;;;;30.30;16.53;;;;;;;-2.61;100.00;97282.13;4997703;28;20471;-76
2022/01/27 04:47:00;;;;;;;23.17;12.27;;;;;;;-2.87;100.00;97249.59;5011813;28;20542;-76
2022/01/27 04:49:27;;;;;;;28.47;18.40;;;;;;;-2.63;100.00;97289.31;5011781;28;21224;-76
2022/01/27 04:51:54;;;;;;;19.13;11.30;;;;;;;-2.69;100.00;97278.81;4995798;28;20470;-76
2022/01/27 04:54:27;;;;;;;26.97;15.80;;;;;;;-2.76;100.00;97260.00;5011752;28;20562;-76
2022/01/27 04:56:58;;;;;;;23.77;13.13;;;;;;;-2.75;100.00;97255.63;4995320;28;20505;-76
2022/01/27 04:59:28;;;;;;;19.20;12.20;;;;;;;-3.05;100.00;97222.75;5011802;28;20534;-76
2022/01/27 05:02:06;;;;;;;26.53;16.43;;;;;;;-2.81;100.00;97248.72;5012031;28;21077;-76
2022/01/27 05:04:39;;;;;;;33.77;17.33;;;;;;;-2.94;100.00;97231.53;5011348;28;20978;-76
2022/01/27 05:07:05;;;;;;;31.93;16.20;;;;;;;-2.86;100.00;97240.81;5011326;28;20415;-77
2022/01/27 05:09:32;;;;;;;26.57;17.73;;;;;;;-2.58;100.00;97276.50;5011360;28;20526;-77
2022/01/27 05:12:10;;;;;;;29.93;19.67;;;;;;;-2.86;100.00;97227.88;4994820;28;20466;-77
2022/01/27 05:14:37;;;;;;;25.10;11.03;;;;;;;-2.72;100.00;97265.53;5011216;28;20454;-77
2022/01/27 05:17:04;;;;;;;23.17;11.00;;;;;;;-2.83;100.00;97258.50;5012525;28;20849;-76
2022/01/27 05:19:31;;;;;;;18.77;13.07;;;;;;;-2.95;100.00;97236.94;5011369;28;20516;-76
2022/01/27 05:21:58;;;;;;;27.00;14.67;;;;;;;-2.94;100.00;97231.53;5011008;28;20466;-76
2022/01/27 05:24:24;;;;;;;25.33;16.80;;;;;;;-2.91;100.00;97232.94;4996040;28;20541;-76
2022/01/27 05:26:51;;;;;;;24.13;13.70;;;;;;;-3.08;100.00;97199.09;5011697;28;20470;-76
2022/01/27 05:29:18;;;;;;;17.63;11.57;;;;;;;-2.98;100.00;97222.66;5011197;28;20900;-77
2022/01/27 05:31:44;;;;;;;27.40;14.93;;;;;;;-2.91;100.00;97236.31;5012537;28;20947;-76
2022/01/27 05:34:11;;;;;;;23.43;13.73;;;;;;;-2.91;100.00;97235.53;5011207;28;20466;-76
2022/01/27 05:36:38;;;;;;;27.33;15.00;;;;;;;-2.69;100.00;97270.25;4994650;28;20538;-77
2022/01/27 05:39:05;;;;;;;27.33;14.47;;;;;;;-2.68;100.00;97282.97;4994713;28;20501;-77
2022/01/27 05:41:32;;;;;;;27.70;16.67;;;;;;;-2.70;100.00;97274.66;5012226;28;20427;-77
2022/01/27 05:43:59;;;;;;;32.93;16.00;;;;;;;-2.93;100.00;97250.47;5012129;28;20485;-76
2022/01/27 05:46:26;;;;;;;18.43;12.70;;;;;;;-2.75;100.00;97284.09;5012659;28;20426;-77
2022/01/27 05:48:53;;;;;;;37.13;16.27;;;;;;;-2.97;100.00;97232.78;5010664;28;20534;-77
2022/01/27 05:51:19;;;;;;;32.67;17.57;;;;;;;-2.72;100.00;97265.53;5011137;28;20451;-77
2022/01/27 05:53:46;;;;;;;15.17;8.57;;;;;;;-2.99;100.00;97227.03;5010529;28;20557;-77
2022/01/27 05:56:13;;;;;;;18.13;11.50;;;;;;;-3.04;100.00;97220.94;5010696;28;20475;-76
2022/01/27 05:58:40;;;;;;;21.30;12.57;;;;;;;-2.91;100.00;97245.88;5010580;28;21048;-76
2022/01/27 06:01:07;;;;;;;21.60;13.43;;;;;;;-3.09;100.00;97221.59;5012012;28;21035;-77
2022/01/27 06:03:34;;;;;;;25.10;16.60;;;;;;;-3.23;100.00;97198.69;5010464;28;20594;-77
2022/01/27 06:06:01;;;;;;;21.80;13.63;;;;;;;-3.01;100.00;97218.72;5011554;28;20442;-77
2022/01/27 06:08:30;;;;;;;18.17;8.97;;;;;;;-2.93;100.00;97238.31;5010490;28;20462;-76
2022/01/27 06:10:57;;;;;;;28.70;15.53;;;;;;;-2.83;100.00;97271.44;5011709;28;20477;-76
2022/01/27 06:13:24;;;;;;;25.33;16.07;;;;;;;-3.08;100.00;97217.19;5010053;28;20470;-76
2022/01/27 06:15:51;;;;;;;18.77;13.50;;;;;;;-2.77;100.00;97266.19;5010343;28;20812;-76
2022/01/27 06:18:19;;;;;;;12.80;9.20;;;;;;;-2.86;100.00;97258.94;5010425;28;20787;-77
2022/01/27 06:20:46;;;;;;;17.67;10.77;;;;;;;-3.03;100.00;97267.28;4993694;28;20443;-77
2022/01/27 06:23:14;;;;;;;24.23;14.27;;;;;;;-3.08;100.00;97251.59;5010150;28;20568;-77
2022/01/27 06:25:41;;;;;;;19.47;13.43;;;;;;;-3.24;100.00;97226.34;5010129;28;20443;-77
2022/01/27 06:28:08;;;;;;;11.70;8.13;;;;;;;-3.51;100.00;97184.47;5010137;28;20446;-76
2022/01/27 06:30:35;;;;;;;20.10;11.20;;;;;;;-3.30;100.00;97224.63;4993790;28;20860;-77
2022/01/27 06:33:03;;;;;;;15.80;9.57;;;;;;;-3.35;100.00;97220.06;5010706;28;20462;-77
2022/01/27 06:35:30;;;;;;;26.13;15.63;;;;;;;-3.24;100.00;97236.66;5013877;28;20431;-77
2022/01/27 06:37:57;;;;;;;25.17;14.37;;;;;;;-3.10;100.00;97234.72;4998203;28;20443;-76
2022/01/27 06:40:24;;;;;;;24.57;16.27;;;;;;;-2.88;100.00;97255.78;5014729;28;20779;-76
2022/01/27 06:42:50;;;;;;;22.03;12.53;;;;;;;-2.95;100.00;97236.94;4997802;28;20561;-76
2022/01/27 06:45:17;;;;;;;28.57;16.47;;;;;;;-2.91;100.00;97245.88;5013990;28;20474;-76
2022/01/27 06:47:44;;;;;;;19.40;12.33;;;;;;;-3.15;100.00;97222.47;5015267;28;20951;-76
2022/01/27 06:50:11;;;;;;;14.13;10.43;;;;;;;-3.06;100.00;97247.03;5015582;28;21053;-76
2022/01/27 06:52:38;;;;;;;19.60;12.80;;;;;;;-2.94;100.00;97265.19;5013964;28;20435;-77
2022/01/27 06:55:05;;;;;;;19.63;14.00;;;;;;;-3.07;100.00;97232.53;5013999;28;20458;-76
2022/01/27 06:57:35;;;;;;;25.83;12.63;;;;;;;-2.91;100.00;97251.84;5013973;28;20538;-76
2022/01/27 07:00:04;;;;;;;14.20;8.73;;;;;;;-2.98;100.00;97228.63;5014142;28;20477;-76
2022/01/27 07:02:31;;;;;;;17.63;11.67;;;;;;;-3.07;100.00;97203.25;5014969;28;20501;-76
2022/01/27 07:04:58;;;;;;;23.50;13.73;;;;;;;-3.04;100.00;97192.50;5013768;28;20465;-76
2022/01/27 07:07:24;;;;;;;15.97;10.90;;;;;;;-3.33;100.00;97165.59;5015013;28;20454;-76
2022/01/27 07:09:51;;;;;;;26.10;13.53;;;;;;;-3.23;100.00;97186.53;5015642;28;20534;-76
2022/01/27 07:12:19;;;;;;;45.93;11.53;;;;;;;-3.14;100.00;97202.56;5013539;28;20450;-75
2022/01/27 07:14:45;;;;;;;21.83;14.90;;;;;;;-3.11;100.00;97199.53;5013395;28;20916;-75
2022/01/27 07:17:14;;;;;;;25.73;15.60;;;;;;;-3.11;100.00;97191.78;5013452;28;20493;-75
2022/01/27 07:19:40;;;;;;;31.87;14.20;;;;;;;-3.07;100.00;97187.75;5014975;28;20498;-75
2022/01/27 07:22:07;;;;;;;29.60;16.70;;;;;;;-3.17;100.00;97180.50;5013409;28;20438;-75
2022/01/27 07:24:34;;;;;;;22.00;12.43;;;;;;;-3.13;100.00;97188.63;5013502;28;20548;-75
2022/01/27 07:27:00;;;;;;;22.90;13.47;;;;;;;-3.18;100.00;97202.22;5013236;28;20454;-75
2022/01/27 07:29:27;;;;;;;27.93;13.50;;;;;;;-3.03;100.00;97220.72;5014052;28;20466;-75
2022/01/27 07:31:54;;;;;;;24.87;14.77;;;;;;;-3.09;100.00;97195.72;5013247;28;20997;-75
2022/01/27 07:34:20;;;;;;;26.53;15.73;;;;;;;-3.16;100.00;97186.47;5013371;28;20834;-75
2022/01/27 07:36:48;;;;;;;15.43;8.47;;;;;;;-3.36;100.00;97168.59;5013281;28;20845;-76
2022/01/27 07:39:16;;;;;;;23.03;14.87;;;;;;;-3.28;100.00;97183.81;5014678;28;20435;-75
2022/01/27 07:41:45;;;;;;;15.93;9.90;;;;;;;-3.30;100.00;97202.13;5012898;28;20984;-75
2022/01/27 07:44:12;;;;;;;10.80;7.27;;;;;;;-3.37;100.00;97198.03;5012774;28;20470;-75
2022/01/27 07:46:39;;;;;;;16.13;10.73;;;;;;;-3.60;100.00;97158.13;5014183;28;20501;-75
2022/01/27 07:49:05;;;;;;;18.67;9.90;;;;;;;-3.12;100.00;97229.00;4996541;28;20438;-75
2022/01/27 07:51:32;;;;;;;19.50;11.77;;;;;;;-3.29;100.00;97195.97;4996583;28;20449;-75
2022/01/27 07:53:59;;;;;;;21.23;12.77;;;;;;;-3.14;100.00;97223.25;5013918;28;20491;-75
2022/01/27 07:56:31;;;;;;;9.90;6.20;;;;;;;-3.37;100.00;97192.88;5012863;28;20518;-75
2022/01/27 07:58:57;;;;;;;14.20;9.90;;;;;;;-3.29;100.00;97213.28;4996390;28;21029;-76
2022/01/27 08:01:24;;;;;;;11.83;8.80;;;;;;;-3.23;100.00;97240.03;5012507;28;20443;-75
2022/01/27 08:03:51;;;;;;;25.77;13.47;;;;;;;-3.40;100.00;97214.78;5012450;28;20574;-75
2022/01/27 08:06:18;;;;;;;11.63;9.33;;;;;;;-3.42;100.00;97211.63;5013701;28;20998;-75
2022/01/27 08:08:45;;;;;;;16.50;11.80;;;;;;;-3.49;100.00;97205.72;4996053;28;20542;-75
2022/01/27 08:11:12;;;;;;;13.10;8.90;;;;;;;-3.70;100.00;97195.81;5012505;28;20947;-75
2022/01/27 08:13:38;;;;;;;19.63;9.50;;;;;;;-3.74;100.00;97185.13;5012542;28;20875;-75
2022/01/27 08:16:06;;;;;;;20.93;13.93;;;;;;;-3.57;100.00;97214.56;5013576;28;20435;-75
2022/01/27 08:18:48;;;;;;;28.77;15.33;;;;;;;-3.34;100.00;97219.09;5012469;28;20439;-74
2022/01/27 08:21:16;;;;;;;16.70;12.80;;;;;;;-3.21;100.00;97240.63;5012207;28;20443;-75
2022/01/27 08:23:44;;;;;;;16.00;10.20;;;;;;;-3.29;100.00;97232.16;5012200;28;20578;-75
2022/01/27 08:26:14;;;;;;;22.03;10.87;;;;;;;-3.33;100.00;97235.41;4995780;28;20508;-75
2022/01/27 08:28:50;;;;;;;12.50;10.17;;;;;;;-3.27;100.00;97234.53;4995634;28;20921;-75
2022/01/27 08:31:17;;;;;;;27.10;14.93;;;;;;;-3.30;100.00;97240.91;5012138;28;20846;-75
2022/01/27 08:33:44;;;;;;;12.13;8.63;;;;;;;-3.18;100.00;97264.28;5013199;28;20470;-75
2022/01/27 08:36:11;;;;;;;15.40;10.83;;;;;;;-3.36;100.00;97225.47;4995674;28;20454;-75
2022/01/27 08:38:43;;;;;;;11.60;8.30;;;;;;;-3.37;100.00;97255.69;5012089;28;20514;-75
2022/01/27 08:41:10;;;;;;;12.83;8.60;;;;;;;-3.41;100.00;97227.91;5013052;28;20426;-75
2022/01/27 08:43:37;;;;;;;27.77;12.83;;;;;;;-3.80;100.00;97167.09;5011642;28;20609;-75
2022/01/27 08:46:04;;;;;;;14.40;9.53;;;;;;;-3.36;100.00;97221.09;5011744;28;20485;-75
2022/01/27 08:48:32;;;;;;;14.70;9.63;;;;;;;-3.29;100.00;97224.41;4995553;28;20447;-75
2022/01/27 08:51:00;;;;;;;16.70;11.37;;;;;;;-3.31;100.00;97226.41;5011759;28;20443;-75
2022/01/27 08:53:48;;;;;;;9.13;7.70;;;;;;;-3.37;100.00;97218.72;4997878;28;20473;-75
2022/01/27 08:56:17;;;;;;;19.83;12.97;;;;;;;-3.59;100.00;97164.88;5012319;28;20443;-75
2022/01/27 08:59:04;;;;;;;23.50;14.77;;;;;;;-3.42;100.00;97184.97;5011480;28;20489;-75
2022/01/27 09:01:30;;;;;;;23.50;15.10;;;;;;;-3.27;100.00;97203.50;5011409;28;20513;-75
2022/01/27 09:03:58;;;;;;;22.30;14.43;;;;;;;-3.43;100.00;97197.13;5011323;28;20629;-75
2022/01/27 09:06:28;;;;;;;15.57;9.83;;;;;;;-3.39;100.00;97200.06;5011413;28;20470;-75
2022/01/27 09:08:56;;;;;;;24.03;15.00;;;;;;;-3.19;100.00;97223.91;4995202;28;20810;-76
2022/01/27 09:11:23;;;;;;;20.87;13.80;;;;;;;-3.17;100.00;97234.03;5012727;28;20525;-75
2022/01/27 09:13:54;;;;;;;28.67;16.70;;;;;;;-3.37;100.00;97209.16;5011032;28;20805;-75
2022/01/27 09:16:26;;;;;;;23.30;14.67;;;;;;;-3.11;100.00;97238.31;5011071;28;20951;-76
2022/01/27 09:19:05;;;;;;;23.90;13.83;;;;;;;-3.07;100.00;97231.72;5011469;28;20439;-76
2022/01/27 09:21:53;;;;;;;22.20;15.90;;;;;;;-3.10;100.00;97229.56;5011878;28;20435;-75
2022/01/27 09:24:39;;;;;;;25.13;14.53;;;;;;;-3.15;100.00;97225.03;5012754;28;20972;-76
2022/01/27 09:27:07;;;;;;;21.03;10.70;;;;;;;-3.34;100.00;97216.50;5013185;28;20415;-75
2022/01/27 09:29:34;;;;;;;19.40;11.80;;;;;;;-3.17;100.00;97219.31;4995563;28;20434;-75
2022/01/27 09:32:02;;;;;;;23.30;16.33;;;;;;;-3.28;100.00;97189.78;5012023;28;20438;-76
2022/01/27 09:34:29;;;;;;;22.77;15.03;;;;;;;-3.45;100.00;97159.56;5011445;28;20455;-76
2022/01/27 09:36:57;;;;;;;25.67;14.60;;;;;;;-3.28;100.00;97189.78;5011454;28;20956;-75
2022/01/27 09:39:24;;;;;;;17.20;9.43;;;;;;;-3.51;100.00;97156.03;5011851;28;20435;-75
2022/01/27 09:41:53;;;;;;;19.20;10.90;;;;;;;-3.17;100.00;97213.34;5011209;28;20526;-76
2022/01/27 09:44:26;;;;;;;14.13;8.70;;;;;;;-3.72;100.00;97140.97;5010865;28;20481;-76
2022/01/27 09:46:55;;;;;;;17.80;9.77;;;;;;;-3.17;100.00;97224.47;5011180;28;20486;-76
2022/01/27 09:49:31;;;;;;;14.03;10.50;;;;;;;-3.16;100.00;97226.06;5012590;28;20785;-76
2022/01/27 09:51:58;;;;;;;15.13;9.87;;;;;;;-3.32;100.00;97196.41;5012348;28;20426;-76
2022/01/27 09:54:25;;;;;;;11.60;8.50;;;;;;;-3.24;100.00;97216.00;5011086;28;20497;-76
2022/01/27 09:56:53;;;;;;;16.03;8.93;;;;;;;-3.41;100.00;97177.00;5011049;28;20447;-76
2022/01/27 09:59:21;;;;;;;19.30;11.07;;;;;;;-3.34;100.00;97188.06;5012260;28;20816;-76
2022/01/27 10:02:08;;;;;;;15.80;11.30;;;;;;;-3.36;100.00;97184.91;5010963;28;20455;-76
2022/01/27 10:04:47;;;;;;;18.97;12.27;;;;;;;-3.18;100.00;97209.19;5010844;28;20476;-76
2022/01/27 10:07:22;;;;;;;16.93;11.27;;;;;;;-3.09;100.00;97213.81;5010259;28;20435;-76
2022/01/27 10:10:05;;;;;;;17.60;10.63;;;;;;;-3.13;100.00;97215.28;5017648;28;20843;-75
2022/01/27 10:12:39;;;;;;;20.33;11.03;;;;;;;-3.25;100.00;97204.06;5012227;28;20419;-75
2022/01/27 10:15:35;;;;;;;18.40;10.70;;;;;;;-3.28;100.00;97196.75;5010407;28;20457;-75
2022/01/27 10:18:03;;;;;;;13.40;8.87;;;;;;;-3.50;100.00;97155.03;5010584;28;20411;-75
2022/01/27 10:20:31;;;;;;;24.57;13.53;;;;;;;-3.28;100.00;97191.59;4994687;28;20439;-75
2022/01/27 10:23:33;;;;;;;11.20;7.43;;;;;;;-3.38;100.00;97171.41;5010818;28;20462;-76
2022/01/27 10:26:13;;;;;;;13.60;12.07;;;;;;;-3.34;100.00;97171.75;5010762;28;20869;-75
2022/01/27 10:28:47;;;;;;;28.30;21.90;;;;;;;-3.21;100.00;97189.69;5010783;28;20473;-75
2022/01/27 10:31:19;;;;;;;41.33;28.33;;;;;;;-3.14;100.00;97216.28;5012013;28;20419;-76
2022/01/27 10:33:59;;;;;;;50.10;35.33;;;;;;;-3.11;100.00;97202.91;4994270;28;20554;-76
2022/01/27 10:36:33;;;;;;;31.23;24.57;;;;;;;-3.27;100.00;97182.81;5011986;28;20848;-75
2022/01/27 10:39:21;;;;;;;23.93;17.80;;;;;;;-3.30;100.00;97160.78;4993945;28;20430;-75
2022/01/27 10:42:14;;;;;;;29.20;18.20;;;;;;;-3.03;100.00;97194.06;5011266;28;20521;-75
2022/01/27 10:44:47;;;;;;;10.77;7.93;;;;;;;-3.10;100.00;97207.06;5009248;28;20574;-75
2022/01/27 10:47:22;;;;;;;15.57;7.80;;;;;;;-3.27;100.00;97172.47;5009869;28;20438;-75
2022/01/27 10:49:58;;;;;;;22.43;14.90;;;;;;;-3.36;100.00;97145.34;4993651;28;20482;-75
2022/01/27 10:52:41;;;;;;;21.37;11.03;;;;;;;-3.06;100.00;97187.53;5011172;28;20846;-75
2022/01/27 10:55:10;;;;;;;21.97;13.50;;;;;;;-2.94;100.00;97200.50;5011184;28;20419;-76
2022/01/27 10:57:37;;;;;;;13.00;8.70;;;;;;;-3.05;100.00;97183.94;5011096;28;20435;-76
2022/01/27 11:00:13;;;;;;;12.67;8.87;;;;;;;-3.43;100.00;97126.53;5009828;28;20445;-76
2022/01/27 11:02:51;;;;;;;17.97;11.57;;;;;;;-3.00;100.00;97194.41;5009763;28;20986;-76
2022/01/27 11:05:24;;;;;;;20.33;11.30;;;;;;;-2.96;100.00;97181.84;5009772;28;20453;-76
2022/01/27 11:07:51;;;;;;;21.17;16.43;;;;;;;-2.95;100.00;97177.44;5009768;28;20501;-75
2022/01/27 11:10:19;;;;;;;17.10;10.40;;;;;;;-3.15;100.00;97131.16;4993444;28;20475;-75
2022/01/27 11:12:47;;;;;;;24.27;17.23;;;;;;;-3.13;100.00;97149.84;5010962;28;20430;-75
2022/01/27 11:15:18;;;;;;;22.90;14.60;;;;;;;-2.92;100.00;97158.94;5010892;28;20857;-75
2022/01/27 11:17:47;;;;;;;20.30;9.00;;;;;;;-3.10;100.00;97145.00;5009578;28;20813;-75
2022/01/27 11:20:49;;;;;;;36.40;15.80;;;;;;;-2.88;100.00;97163.44;4998965;28;20459;-76
2022/01/27 11:25:55;;;;;;;22.40;13.17;;;;;;;-2.86;100.00;97165.78;5013142;28;20608;-76
2022/01/27 11:28:23;;;;;;;27.83;16.83;;;;;;;-2.87;100.00;97157.25;5013176;28;20430;-76
2022/01/27 11:31:27;;;;;;;20.77;13.30;;;;;;;-2.79;100.00;97163.91;4996878;28;20447;-76
2022/01/27 11:34:02;;;;;;;22.10;12.43;;;;;;;-2.98;100.00;97125.16;5013990;28;20466;-75
2022/01/27 11:36:30;;;;;;;30.10;14.03;;;;;;;-2.83;100.00;97137.69;5013070;28;20479;-75
2022/01/27 11:38:58;;;;;;;21.40;15.20;;;;;;;-2.80;100.00;97131.31;5014754;28;20847;-75
2022/01/27 11:41:37;;;;;;;22.43;12.40;;;;;;;-2.72;100.00;97128.38;5014695;28;20458;-75
2022/01/27 11:44:32;;;;;;;15.10;9.77;;;;;;;-2.69;100.00;97143.44;5012674;28;20466;-75
2022/01/27 11:47:13;;;;;;;20.40;11.67;;;;;;;-2.72;100.00;97142.09;4996578;28;20478;-76
2022/01/27 11:49:54;;;;;;;15.57;9.50;;;;;;;-2.70;100.00;97137.50;5014094;28;20518;-75
2022/01/27 11:52:30;;;;;;;20.93;14.10;;;;;;;-2.93;100.00;97095.28;4996414;28;20880;-75
2022/01/27 11:55:16;;;;;;;13.50;8.93;;;;;;;-2.65;100.00;97130.88;5012808;28;20472;-75
2022/01/27 11:57:45;;;;;;;18.10;12.23;;;;;;;-2.83;100.00;97105.84;5013873;28;20845;-75
2022/01/27 12:00:18;;;;;;;18.93;11.03;;;;;;;-2.62;100.00;97118.28;5012593;28;20474;-75
2022/01/27 12:03:03;;;;;;;39.93;21.77;;;;;;;-2.58;100.00;97110.84;5013973;28;20431;-75
2022/01/27 12:05:39;;;;;;;80.40;45.90;;;;;;;-2.59;100.00;97109.28;5012285;28;20474;-75
2022/01/27 12:08:09;;;;;;;119.40;71.27;;;;;;;-2.61;100.00;97106.91;5012687;28;20446;-76